sensor_id;sensor_type;location;lat;lon;timestamp;P1;durP1;ratioP1;P2;durP2;ratioP2
581;SDS011;277;50.074;8.436;2023-12-20T06:44:01;1.80;;;1.17;;
581;SDS011;277;50.074;8.436;2023-12-20T06:46:29;4.35;;;1.85;;
581;SDS011;277;50.074;8.436;2023-12-20T06:48:57;7.32;;;1.60;;
581;SDS011;277;50.074;8.436;2023-12-20T06:51:25;5.88;;;1.15;;
581;SDS011;277;50.074;8.436;2023-12-20T06:53:53;1.00;;;0.90;;
581;SDS011;277;50.074;8.436;2023-12-20T06:56:21;5.63;;;1.87;;
581;SDS011;277;50.074;8.436;2023-12-20T06:58:50;2.33;;;1.35;;
581;SDS011;277;50.074;8.436;2023-12-20T07:03:46;5.68;;;1.52;;
581;SDS011;277;50.074;8.436;2023-12-20T07:06:14;0.95;;;0.90;;
581;SDS011;277;50.074;8.436;2023-12-20T07:08:44;1.75;;;1.10;;
581;SDS011;277;50.074;8.436;2023-12-20T07:11:12;1.73;;;1.58;;
581;SDS011;277;50.074;8.436;2023-12-20T07:13:40;1.20;;;1.05;;
581;SDS011;277;50.074;8.436;2023-12-20T07:16:09;3.25;;;1.25;;
581;SDS011;277;50.074;8.436;2023-12-20T07:18:37;1.63;;;1.02;;
581;SDS011;277;50.074;8.436;2023-12-20T07:21:05;1.00;;;0.90;;
581;SDS011;277;50.074;8.436;2023-12-20T07:23:34;2.33;;;0.98;;
581;SDS011;277;50.074;8.436;2023-12-20T07:26:02;1.35;;;1.25;;
581;SDS011;277;50.074;8.436;2023-12-20T07:28:30;1.80;;;0.80;;
581;SDS011;277;50.074;8.436;2023-12-20T07:30:58;1.50;;;1.40;;
581;SDS011;277;50.074;8.436;2023-12-20T07:33:28;1.85;;;1.00;;
581;SDS011;277;50.074;8.436;2023-12-20T07:36:04;1.42;;;0.95;;
581;SDS011;277;50.074;8.436;2023-12-20T07:38:32;1.48;;;1.38;;
581;SDS011;277;50.074;8.436;2023-12-20T07:41:00;1.50;;;1.08;;
581;SDS011;277;50.074;8.436;2023-12-20T07:43:28;4.22;;;1.50;;
581;SDS011;277;50.074;8.436;2023-12-20T07:45:56;3.65;;;1.20;;
581;SDS011;277;50.074;8.436;2023-12-20T07:48:24;1.80;;;1.30;;
581;SDS011;277;50.074;8.436;2023-12-20T07:50:53;2.17;;;0.80;;
581;SDS011;277;50.074;8.436;2023-12-20T07:53:21;2.65;;;1.05;;
581;SDS011;277;50.074;8.436;2023-12-20T07:55:49;2.85;;;1.83;;
581;SDS011;277;50.074;8.436;2023-12-20T07:58:18;1.23;;;0.93;;
581;SDS011;277;50.074;8.436;2023-12-20T08:00:56;2.70;;;1.10;;
581;SDS011;277;50.074;8.436;2023-12-20T08:03:24;2.60;;;0.93;;
581;SDS011;277;50.074;8.436;2023-12-20T08:05:54;1.10;;;1.00;;
581;SDS011;277;50.074;8.436;2023-12-20T08:08:22;2.85;;;1.00;;
581;SDS011;277;50.074;8.436;2023-12-20T08:10:50;1.80;;;0.90;;
581;SDS011;277;50.074;8.436;2023-12-20T08:13:18;2.13;;;1.85;;
581;SDS011;277;50.074;8.436;2023-12-20T08:15:51;1.83;;;1.05;;
581;SDS011;277;50.074;8.436;2023-12-20T08:18:19;2.60;;;1.25;;
581;SDS011;277;50.074;8.436;2023-12-20T08:20:47;1.00;;;0.90;;
581;SDS011;277;50.074;8.436;2023-12-20T08:23:16;3.80;;;0.90;;
581;SDS011;277;50.074;8.436;2023-12-20T08:25:44;2.28;;;1.60;;
581;SDS011;277;50.074;8.436;2023-12-20T08:28:12;3.22;;;1.98;;
581;SDS011;277;50.074;8.436;2023-12-20T08:30:40;2.85;;;1.10;;
581;SDS011;277;50.074;8.436;2023-12-20T08:33:08;5.43;;;1.10;;
581;SDS011;277;50.074;8.436;2023-12-20T08:35:39;1.98;;;1.05;;
581;SDS011;277;50.074;8.436;2023-12-20T08:38:07;1.00;;;0.80;;
581;SDS011;277;50.074;8.436;2023-12-20T08:40:37;1.35;;;0.77;;
581;SDS011;277;50.074;8.436;2023-12-20T08:43:05;2.22;;;1.27;;
581;SDS011;277;50.074;8.436;2023-12-20T08:45:33;2.00;;;0.90;;
581;SDS011;277;50.074;8.436;2023-12-20T08:48:01;1.40;;;1.15;;
581;SDS011;277;50.074;8.436;2023-12-20T08:50:34;1.55;;;1.00;;
581;SDS011;277;50.074;8.436;2023-12-20T08:53:03;1.30;;;0.90;;
581;SDS011;277;50.074;8.436;2023-12-20T08:55:31;2.47;;;1.20;;
581;SDS011;277;50.074;8.436;2023-12-20T08:58:00;1.88;;;1.35;;
581;SDS011;277;50.074;8.436;2023-12-20T09:00:28;2.58;;;1.40;;
581;SDS011;277;50.074;8.436;2023-12-20T09:02:57;4.90;;;1.80;;
581;SDS011;277;50.074;8.436;2023-12-20T09:05:25;1.40;;;1.10;;
581;SDS011;277;50.074;8.436;2023-12-20T09:07:53;5.18;;;1.83;;
581;SDS011;277;50.074;8.436;2023-12-20T09:10:21;4.13;;;1.95;;
581;SDS011;277;50.074;8.436;2023-12-20T09:12:49;3.45;;;1.77;;
581;SDS011;277;50.074;8.436;2023-12-20T09:15:21;7.63;;;2.60;;
581;SDS011;277;50.074;8.436;2023-12-20T09:17:50;2.55;;;1.50;;
581;SDS011;277;50.074;8.436;2023-12-20T09:20:18;2.20;;;1.80;;
581;SDS011;277;50.074;8.436;2023-12-20T09:22:46;2.08;;;1.67;;
581;SDS011;277;50.074;8.436;2023-12-20T09:25:14;2.58;;;1.80;;
581;SDS011;277;50.074;8.436;2023-12-20T09:27:44;4.05;;;1.80;;
581;SDS011;277;50.074;8.436;2023-12-20T09:30:12;4.20;;;1.70;;
581;SDS011;277;50.074;8.436;2023-12-20T09:32:54;2.50;;;1.17;;
581;SDS011;277;50.074;8.436;2023-12-20T09:35:22;3.75;;;1.52;;
581;SDS011;277;50.074;8.436;2023-12-20T09:37:53;2.65;;;1.95;;
581;SDS011;277;50.074;8.436;2023-12-20T09:40:20;4.88;;;2.35;;
581;SDS011;277;50.074;8.436;2023-12-20T09:42:55;4.05;;;1.60;;
581;SDS011;277;50.074;8.436;2023-12-20T09:45:24;2.35;;;2.10;;
581;SDS011;277;50.074;8.436;2023-12-20T09:47:53;2.63;;;1.35;;
581;SDS011;277;50.074;8.436;2023-12-20T09:50:23;2.88;;;0.98;;
581;SDS011;277;50.074;8.436;2023-12-20T09:52:52;1.30;;;1.20;;
581;SDS011;277;50.074;8.436;2023-12-20T09:55:23;2.97;;;1.50;;
581;SDS011;277;50.074;8.436;2023-12-20T09:57:52;3.88;;;1.27;;
581;SDS011;277;50.074;8.436;2023-12-20T10:00:21;4.07;;;1.50;;
581;SDS011;277;50.074;8.436;2023-12-20T10:02:50;1.80;;;1.23;;
581;SDS011;277;50.074;8.436;2023-12-20T10:05:26;2.95;;;1.50;;
581;SDS011;277;50.074;8.436;2023-12-20T10:07:55;2.15;;;1.05;;
581;SDS011;277;50.074;8.436;2023-12-20T10:10:23;2.00;;;0.95;;
581;SDS011;277;50.074;8.436;2023-12-20T10:13:07;0.90;;;0.90;;
581;SDS011;277;50.074;8.436;2023-12-20T10:15:37;3.00;;;1.20;;
581;SDS011;277;50.074;8.436;2023-12-20T10:18:07;2.28;;;1.00;;
581;SDS011;277;50.074;8.436;2023-12-20T10:20:37;3.70;;;1.45;;
581;SDS011;277;50.074;8.436;2023-12-20T10:23:07;1.42;;;1.33;;
581;SDS011;277;50.074;8.436;2023-12-20T10:25:35;1.95;;;1.75;;
581;SDS011;277;50.074;8.436;2023-12-20T10:28:10;1.90;;;0.90;;
581;SDS011;277;50.074;8.436;2023-12-20T10:30:39;6.25;;;1.48;;
581;SDS011;277;50.074;8.436;2023-12-20T10:33:09;1.10;;;0.90;;
581;SDS011;277;50.074;8.436;2023-12-20T10:35:39;1.15;;;0.80;;
581;SDS011;277;50.074;8.436;2023-12-20T10:38:12;3.33;;;1.30;;
581;SDS011;277;50.074;8.436;2023-12-20T10:40:42;2.13;;;1.05;;
581;SDS011;277;50.074;8.436;2023-12-20T10:43:12;1.63;;;0.90;;
581;SDS011;277;50.074;8.436;2023-12-20T10:45:41;1.58;;;1.17;;
581;SDS011;277;50.074;8.436;2023-12-20T10:48:09;2.22;;;1.50;;
581;SDS011;277;50.074;8.436;2023-12-20T10:50:39;2.30;;;1.85;;
581;SDS011;277;50.074;8.436;2023-12-20T10:53:08;2.90;;;1.55;;
581;SDS011;277;50.074;8.436;2023-12-20T10:55:38;4.15;;;1.60;;
581;SDS011;277;50.074;8.436;2023-12-20T10:58:07;1.45;;;0.88;;
581;SDS011;277;50.074;8.436;2023-12-20T11:00:36;1.80;;;1.48;;
581;SDS011;277;50.074;8.436;2023-12-20T11:03:08;1.80;;;1.13;;
581;SDS011;277;50.074;8.436;2023-12-20T11:05:38;1.23;;;1.10;;
581;SDS011;277;50.074;8.436;2023-12-20T11:08:17;1.75;;;1.00;;
581;SDS011;277;50.074;8.436;2023-12-20T11:10:55;4.00;;;1.00;;
581;SDS011;277;50.074;8.436;2023-12-20T11:13:31;1.25;;;0.80;;
581;SDS011;277;50.074;8.436;2023-12-20T11:16:03;2.28;;;1.00;;
581;SDS011;277;50.074;8.436;2023-12-20T11:18:34;4.05;;;0.90;;
581;SDS011;277;50.074;8.436;2023-12-20T11:21:04;2.90;;;1.15;;
581;SDS011;277;50.074;8.436;2023-12-20T11:23:32;5.07;;;1.08;;
581;SDS011;277;50.074;8.436;2023-12-20T11:26:01;2.45;;;0.85;;
581;SDS011;277;50.074;8.436;2023-12-20T11:28:30;1.88;;;0.80;;
581;SDS011;277;50.074;8.436;2023-12-20T11:30:58;4.80;;;1.15;;
581;SDS011;277;50.074;8.436;2023-12-20T11:33:30;1.10;;;0.60;;
581;SDS011;277;50.074;8.436;2023-12-20T11:35:59;2.00;;;0.80;;
581;SDS011;277;50.074;8.436;2023-12-20T11:38:36;1.70;;;0.68;;
581;SDS011;277;50.074;8.436;2023-12-20T11:41:05;1.20;;;1.10;;
581;SDS011;277;50.074;8.436;2023-12-20T11:43:35;1.88;;;0.93;;
581;SDS011;277;50.074;8.436;2023-12-20T11:46:04;3.97;;;1.55;;
581;SDS011;277;50.074;8.436;2023-12-20T11:48:34;1.13;;;0.70;;
581;SDS011;277;50.074;8.436;2023-12-20T11:51:02;1.77;;;1.00;;
581;SDS011;277;50.074;8.436;2023-12-20T11:53:37;2.90;;;0.98;;
581;SDS011;277;50.074;8.436;2023-12-20T11:56:06;1.00;;;0.90;;
581;SDS011;277;50.074;8.436;2023-12-20T11:58:34;2.38;;;0.85;;
581;SDS011;277;50.074;8.436;2023-12-20T12:01:02;3.00;;;1.10;;
581;SDS011;277;50.074;8.436;2023-12-20T12:03:35;0.77;;;0.75;;
581;SDS011;277;50.074;8.436;2023-12-20T12:06:04;1.30;;;0.85;;
581;SDS011;277;50.074;8.436;2023-12-20T12:08:32;4.45;;;1.40;;
581;SDS011;277;50.074;8.436;2023-12-20T12:11:01;1.85;;;1.08;;
581;SDS011;277;50.074;8.436;2023-12-20T12:13:30;3.30;;;1.73;;
581;SDS011;277;50.074;8.436;2023-12-20T12:15:58;2.45;;;1.00;;
581;SDS011;277;50.074;8.436;2023-12-20T12:18:26;1.00;;;0.90;;
581;SDS011;277;50.074;8.436;2023-12-20T12:20:59;3.17;;;1.17;;
581;SDS011;277;50.074;8.436;2023-12-20T12:23:35;3.20;;;0.88;;
581;SDS011;277;50.074;8.436;2023-12-20T12:26:04;3.55;;;1.05;;
581;SDS011;277;50.074;8.436;2023-12-20T12:28:34;3.10;;;0.93;;
581;SDS011;277;50.074;8.436;2023-12-20T12:31:02;2.55;;;1.00;;
581;SDS011;277;50.074;8.436;2023-12-20T12:33:30;0.90;;;0.77;;
581;SDS011;277;50.074;8.436;2023-12-20T12:35:58;0.70;;;0.63;;
581;SDS011;277;50.074;8.436;2023-12-20T12:38:27;1.20;;;0.82;;
581;SDS011;277;50.074;8.436;2023-12-20T12:40:55;2.17;;;0.90;;
581;SDS011;277;50.074;8.436;2023-12-20T12:43:25;4.57;;;1.05;;
581;SDS011;277;50.074;8.436;2023-12-20T12:45:53;1.15;;;0.80;;
581;SDS011;277;50.074;8.436;2023-12-20T12:48:21;2.05;;;0.88;;
581;SDS011;277;50.074;8.436;2023-12-20T12:50:49;1.10;;;0.90;;
581;SDS011;277;50.074;8.436;2023-12-20T12:53:19;1.10;;;0.93;;
581;SDS011;277;50.074;8.436;2023-12-20T12:55:47;1.38;;;0.80;;
581;SDS011;277;50.074;8.436;2023-12-20T12:58:15;1.33;;;0.90;;
581;SDS011;277;50.074;8.436;2023-12-20T13:00:44;1.65;;;1.00;;
581;SDS011;277;50.074;8.436;2023-12-20T13:03:12;1.15;;;0.73;;
581;SDS011;277;50.074;8.436;2023-12-20T13:05:39;2.58;;;1.08;;
581;SDS011;277;50.074;8.436;2023-12-20T13:08:11;1.85;;;0.80;;
581;SDS011;277;50.074;8.436;2023-12-20T13:10:39;1.50;;;0.77;;
581;SDS011;277;50.074;8.436;2023-12-20T13:13:07;1.23;;;1.13;;
581;SDS011;277;50.074;8.436;2023-12-20T13:15:35;1.20;;;1.10;;
581;SDS011;277;50.074;8.436;2023-12-20T13:18:05;1.83;;;1.05;;
581;SDS011;277;50.074;8.436;2023-12-20T13:20:33;1.52;;;1.00;;
581;SDS011;277;50.074;8.436;2023-12-20T13:23:01;3.53;;;1.08;;
581;SDS011;277;50.074;8.436;2023-12-20T13:25:29;1.65;;;1.20;;
581;SDS011;277;50.074;8.436;2023-12-20T13:27:57;1.38;;;0.98;;
581;SDS011;277;50.074;8.436;2023-12-20T13:30:25;3.10;;;1.25;;
581;SDS011;277;50.074;8.436;2023-12-20T13:32:53;1.63;;;1.30;;
581;SDS011;277;50.074;8.436;2023-12-20T13:35:22;1.45;;;0.90;;
581;SDS011;277;50.074;8.436;2023-12-20T13:37:51;1.58;;;1.10;;
581;SDS011;277;50.074;8.436;2023-12-20T13:40:19;4.50;;;1.45;;
581;SDS011;277;50.074;8.436;2023-12-20T13:42:47;2.38;;;0.93;;
581;SDS011;277;50.074;8.436;2023-12-20T13:45:15;2.38;;;1.00;;
581;SDS011;277;50.074;8.436;2023-12-20T13:47:43;2.10;;;1.17;;
581;SDS011;277;50.074;8.436;2023-12-20T13:50:11;1.65;;;1.00;;
581;SDS011;277;50.074;8.436;2023-12-20T13:52:41;2.83;;;1.40;;
581;SDS011;277;50.074;8.436;2023-12-20T13:55:09;2.45;;;1.00;;
581;SDS011;277;50.074;8.436;2023-12-20T13:57:37;2.95;;;0.90;;
581;SDS011;277;50.074;8.436;2023-12-20T14:00:20;1.77;;;1.15;;
581;SDS011;277;50.074;8.436;2023-12-20T14:02:48;1.33;;;1.10;;
581;SDS011;277;50.074;8.436;2023-12-20T14:05:16;1.33;;;1.08;;
581;SDS011;277;50.074;8.436;2023-12-20T14:07:46;1.10;;;0.77;;
581;SDS011;277;50.074;8.436;2023-12-20T14:10:15;0.80;;;0.63;;
581;SDS011;277;50.074;8.436;2023-12-20T14:12:43;1.42;;;0.80;;
581;SDS011;277;50.074;8.436;2023-12-20T14:15:11;1.17;;;0.80;;
581;SDS011;277;50.074;8.436;2023-12-20T14:17:40;0.88;;;0.60;;
581;SDS011;277;50.074;8.436;2023-12-20T14:20:09;1.25;;;1.15;;
581;SDS011;277;50.074;8.436;2023-12-20T14:22:39;3.85;;;1.20;;
581;SDS011;277;50.074;8.436;2023-12-20T14:25:11;1.00;;;0.90;;
581;SDS011;277;50.074;8.436;2023-12-20T14:27:40;1.42;;;0.80;;
581;SDS011;277;50.074;8.436;2023-12-20T14:30:11;2.55;;;1.20;;
581;SDS011;277;50.074;8.436;2023-12-20T14:32:41;0.90;;;0.70;;
581;SDS011;277;50.074;8.436;2023-12-20T14:35:09;0.80;;;0.70;;
581;SDS011;277;50.074;8.436;2023-12-20T14:37:37;1.20;;;0.70;;
581;SDS011;277;50.074;8.436;2023-12-20T14:40:07;1.40;;;0.95;;
581;SDS011;277;50.074;8.436;2023-12-20T14:42:42;0.95;;;0.88;;
581;SDS011;277;50.074;8.436;2023-12-20T14:45:10;2.67;;;0.80;;
581;SDS011;277;50.074;8.436;2023-12-20T14:47:39;1.58;;;0.75;;
581;SDS011;277;50.074;8.436;2023-12-20T14:50:07;1.00;;;0.80;;
581;SDS011;277;50.074;8.436;2023-12-20T14:52:36;7.47;;;1.17;;
581;SDS011;277;50.074;8.436;2023-12-20T14:55:04;1.88;;;1.13;;
581;SDS011;277;50.074;8.436;2023-12-20T14:57:33;1.40;;;0.75;;
581;SDS011;277;50.074;8.436;2023-12-20T15:00:02;3.85;;;0.80;;
581;SDS011;277;50.074;8.436;2023-12-20T15:02:31;1.35;;;0.70;;
581;SDS011;277;50.074;8.436;2023-12-20T15:04:59;0.70;;;0.60;;
581;SDS011;277;50.074;8.436;2023-12-20T15:07:27;2.67;;;0.80;;
581;SDS011;277;50.074;8.436;2023-12-20T15:09:55;0.80;;;0.68;;
581;SDS011;277;50.074;8.436;2023-12-20T15:12:23;1.30;;;0.88;;
581;SDS011;277;50.074;8.436;2023-12-20T15:14:51;0.75;;;0.65;;
581;SDS011;277;50.074;8.436;2023-12-20T15:17:20;1.33;;;0.88;;
581;SDS011;277;50.074;8.436;2023-12-20T15:19:48;1.45;;;0.85;;
581;SDS011;277;50.074;8.436;2023-12-20T15:22:16;2.20;;;0.70;;
581;SDS011;277;50.074;8.436;2023-12-20T15:24:44;1.33;;;0.85;;
581;SDS011;277;50.074;8.436;2023-12-20T15:27:13;0.80;;;0.70;;
581;SDS011;277;50.074;8.436;2023-12-20T15:29:41;0.80;;;0.70;;
581;SDS011;277;50.074;8.436;2023-12-20T15:32:10;0.90;;;0.50;;
581;SDS011;277;50.074;8.436;2023-12-20T15:34:39;1.80;;;0.75;;
581;SDS011;277;50.074;8.436;2023-12-20T15:37:07;1.75;;;0.77;;
581;SDS011;277;50.074;8.436;2023-12-20T15:39:35;1.88;;;0.70;;
581;SDS011;277;50.074;8.436;2023-12-20T15:42:03;3.13;;;0.95;;
581;SDS011;277;50.074;8.436;2023-12-20T15:44:31;3.58;;;1.63;;
581;SDS011;277;50.074;8.436;2023-12-20T15:46:59;2.05;;;0.60;;
581;SDS011;277;50.074;8.436;2023-12-20T15:49:27;2.45;;;0.70;;
581;SDS011;277;50.074;8.436;2023-12-20T15:51:56;1.70;;;1.08;;
581;SDS011;277;50.074;8.436;2023-12-20T15:54:24;1.58;;;0.85;;
581;SDS011;277;50.074;8.436;2023-12-20T15:56:52;0.93;;;0.70;;
581;SDS011;277;50.074;8.436;2023-12-20T15:59:20;2.15;;;0.93;;
581;SDS011;277;50.074;8.436;2023-12-20T16:01:48;0.63;;;0.60;;
581;SDS011;277;50.074;8.436;2023-12-20T16:04:20;1.10;;;0.80;;
581;SDS011;277;50.074;8.436;2023-12-20T16:06:48;2.20;;;1.40;;
581;SDS011;277;50.074;8.436;2023-12-20T16:09:17;1.38;;;0.93;;
581;SDS011;277;50.074;8.436;2023-12-20T16:11:45;1.08;;;0.70;;
581;SDS011;277;50.074;8.436;2023-12-20T16:14:13;1.35;;;1.10;;
581;SDS011;277;50.074;8.436;2023-12-20T16:16:44;2.13;;;0.90;;
581;SDS011;277;50.074;8.436;2023-12-20T16:19:12;4.53;;;1.13;;
581;SDS011;277;50.074;8.436;2023-12-20T16:21:40;2.60;;;0.80;;
581;SDS011;277;50.074;8.436;2023-12-20T16:24:08;3.25;;;1.10;;
581;SDS011;277;50.074;8.436;2023-12-20T16:26:38;1.10;;;0.70;;
581;SDS011;277;50.074;8.436;2023-12-20T16:29:06;1.52;;;0.80;;
581;SDS011;277;50.074;8.436;2023-12-20T16:31:34;1.45;;;0.90;;
581;SDS011;277;50.074;8.436;2023-12-20T16:34:02;4.50;;;1.50;;
581;SDS011;277;50.074;8.436;2023-12-20T16:36:47;2.75;;;1.67;;
581;SDS011;277;50.074;8.436;2023-12-20T16:39:18;2.80;;;1.08;;
581;SDS011;277;50.074;8.436;2023-12-20T16:41:51;4.60;;;1.75;;
581;SDS011;277;50.074;8.436;2023-12-20T16:44:19;2.50;;;1.02;;
581;SDS011;277;50.074;8.436;2023-12-20T16:46:47;2.20;;;1.35;;
581;SDS011;277;50.074;8.436;2023-12-20T16:49:15;1.30;;;1.20;;
581;SDS011;277;50.074;8.436;2023-12-20T16:51:43;3.50;;;1.65;;
581;SDS011;277;50.074;8.436;2023-12-20T16:54:11;1.20;;;1.10;;
581;SDS011;277;50.074;8.436;2023-12-20T16:56:39;1.35;;;0.90;;
581;SDS011;277;50.074;8.436;2023-12-20T16:59:09;2.63;;;1.40;;
581;SDS011;277;50.074;8.436;2023-12-20T17:01:37;5.82;;;1.95;;
581;SDS011;277;50.074;8.436;2023-12-20T17:04:07;5.38;;;1.58;;
581;SDS011;277;50.074;8.436;2023-12-20T17:06:35;5.68;;;1.10;;
581;SDS011;277;50.074;8.436;2023-12-20T17:09:03;2.80;;;1.27;;
581;SDS011;277;50.074;8.436;2023-12-20T17:11:31;4.72;;;1.20;;
581;SDS011;277;50.074;8.436;2023-12-20T17:13:59;2.55;;;1.10;;
581;SDS011;277;50.074;8.436;2023-12-20T17:16:28;2.10;;;1.10;;
581;SDS011;277;50.074;8.436;2023-12-20T17:18:57;1.65;;;1.23;;
581;SDS011;277;50.074;8.436;2023-12-20T17:21:25;1.20;;;0.90;;
581;SDS011;277;50.074;8.436;2023-12-20T17:23:53;2.85;;;1.50;;
581;SDS011;277;50.074;8.436;2023-12-20T17:26:20;2.33;;;1.15;;
581;SDS011;277;50.074;8.436;2023-12-20T17:28:48;2.42;;;1.10;;
581;SDS011;277;50.074;8.436;2023-12-20T17:31:16;1.35;;;0.80;;
581;SDS011;277;50.074;8.436;2023-12-20T17:33:46;1.13;;;0.98;;
581;SDS011;277;50.074;8.436;2023-12-20T17:36:14;2.40;;;1.58;;
581;SDS011;277;50.074;8.436;2023-12-20T17:38:43;2.28;;;1.10;;
581;SDS011;277;50.074;8.436;2023-12-20T17:41:11;1.40;;;0.98;;
581;SDS011;277;50.074;8.436;2023-12-20T17:43:38;1.30;;;1.08;;
581;SDS011;277;50.074;8.436;2023-12-20T17:46:06;3.72;;;1.65;;
581;SDS011;277;50.074;8.436;2023-12-20T17:48:34;3.10;;;0.95;;
581;SDS011;277;50.074;8.436;2023-12-20T17:51:04;2.08;;;1.27;;
581;SDS011;277;50.074;8.436;2023-12-20T17:53:32;2.25;;;1.52;;
581;SDS011;277;50.074;8.436;2023-12-20T17:56:00;1.98;;;1.30;;
581;SDS011;277;50.074;8.436;2023-12-20T17:58:28;2.25;;;1.73;;
581;SDS011;277;50.074;8.436;2023-12-20T18:00:56;2.55;;;1.30;;
581;SDS011;277;50.074;8.436;2023-12-20T18:03:24;2.33;;;1.80;;
581;SDS011;277;50.074;8.436;2023-12-20T18:05:52;3.05;;;1.80;;
581;SDS011;277;50.074;8.436;2023-12-20T18:08:22;2.50;;;1.70;;
581;SDS011;277;50.074;8.436;2023-12-20T18:10:50;2.15;;;1.40;;
581;SDS011;277;50.074;8.436;2023-12-20T18:13:18;1.33;;;1.23;;
581;SDS011;277;50.074;8.436;2023-12-20T18:15:46;3.70;;;1.15;;
581;SDS011;277;50.074;8.436;2023-12-20T18:18:14;3.63;;;1.83;;
581;SDS011;277;50.074;8.436;2023-12-20T18:20:42;1.60;;;1.20;;
581;SDS011;277;50.074;8.436;2023-12-20T18:23:10;2.80;;;1.30;;
581;SDS011;277;50.074;8.436;2023-12-20T18:25:40;2.47;;;1.48;;
581;SDS011;277;50.074;8.436;2023-12-20T18:28:08;4.85;;;1.70;;
581;SDS011;277;50.074;8.436;2023-12-20T18:30:36;3.55;;;1.85;;
581;SDS011;277;50.074;8.436;2023-12-20T18:33:04;5.93;;;1.23;;
581;SDS011;277;50.074;8.436;2023-12-20T18:35:32;6.97;;;1.80;;
581;SDS011;277;50.074;8.436;2023-12-20T18:38:02;1.55;;;1.23;;
581;SDS011;277;50.074;8.436;2023-12-20T18:40:30;2.97;;;1.77;;
581;SDS011;277;50.074;8.436;2023-12-20T18:43:00;1.70;;;1.42;;
581;SDS011;277;50.074;8.436;2023-12-20T18:45:28;2.10;;;1.60;;
581;SDS011;277;50.074;8.436;2023-12-20T18:47:56;2.22;;;1.13;;
581;SDS011;277;50.074;8.436;2023-12-20T18:50:24;2.75;;;1.73;;
581;SDS011;277;50.074;8.436;2023-12-20T18:52:52;3.53;;;1.75;;
581;SDS011;277;50.074;8.436;2023-12-20T18:55:20;5.75;;;1.98;;
581;SDS011;277;50.074;8.436;2023-12-20T18:57:48;3.85;;;1.80;;
581;SDS011;277;50.074;8.436;2023-12-20T19:00:17;2.17;;;1.75;;
581;SDS011;277;50.074;8.436;2023-12-20T19:02:45;4.68;;;1.60;;
581;SDS011;277;50.074;8.436;2023-12-20T19:05:14;2.25;;;1.27;;
581;SDS011;277;50.074;8.436;2023-12-20T19:07:45;3.83;;;1.45;;
581;SDS011;277;50.074;8.436;2023-12-20T19:10:13;4.10;;;1.67;;
581;SDS011;277;50.074;8.436;2023-12-20T19:12:41;4.72;;;1.88;;
581;SDS011;277;50.074;8.436;2023-12-20T19:15:09;4.40;;;2.20;;
581;SDS011;277;50.074;8.436;2023-12-20T19:17:39;4.90;;;3.10;;
581;SDS011;277;50.074;8.436;2023-12-20T19:20:07;2.35;;;1.88;;
581;SDS011;277;50.074;8.436;2023-12-20T19:22:36;2.25;;;1.85;;
581;SDS011;277;50.074;8.436;2023-12-20T19:25:04;4.13;;;1.70;;
581;SDS011;277;50.074;8.436;2023-12-20T19:27:35;2.20;;;1.35;;
581;SDS011;277;50.074;8.436;2023-12-20T19:30:03;2.95;;;1.38;;
581;SDS011;277;50.074;8.436;2023-12-20T19:32:32;3.58;;;1.55;;
581;SDS011;277;50.074;8.436;2023-12-20T19:35:02;6.85;;;2.25;;
581;SDS011;277;50.074;8.436;2023-12-20T19:37:30;1.52;;;1.20;;
581;SDS011;277;50.074;8.436;2023-12-20T19:39:58;2.05;;;1.50;;
581;SDS011;277;50.074;8.436;2023-12-20T19:42:27;7.00;;;1.80;;
581;SDS011;277;50.074;8.436;2023-12-20T19:44:57;1.65;;;1.55;;
581;SDS011;277;50.074;8.436;2023-12-20T19:47:25;2.35;;;1.40;;
581;SDS011;277;50.074;8.436;2023-12-20T19:49:53;4.32;;;1.40;;
581;SDS011;277;50.074;8.436;2023-12-20T19:52:24;3.50;;;1.98;;
581;SDS011;277;50.074;8.436;2023-12-20T19:54:51;2.25;;;1.30;;
581;SDS011;277;50.074;8.436;2023-12-20T19:57:19;3.45;;;2.15;;
581;SDS011;277;50.074;8.436;2023-12-20T19:59:48;4.80;;;3.08;;
581;SDS011;277;50.074;8.436;2023-12-20T20:02:16;2.85;;;2.17;;
581;SDS011;277;50.074;8.436;2023-12-20T20:04:44;2.65;;;1.50;;
581;SDS011;277;50.074;8.436;2023-12-20T20:07:13;4.35;;;2.72;;
581;SDS011;277;50.074;8.436;2023-12-20T20:09:42;4.30;;;2.17;;
581;SDS011;277;50.074;8.436;2023-12-20T20:12:10;4.28;;;2.88;;
581;SDS011;277;50.074;8.436;2023-12-20T20:14:38;2.95;;;2.13;;
581;SDS011;277;50.074;8.436;2023-12-20T20:17:06;4.53;;;1.65;;
581;SDS011;277;50.074;8.436;2023-12-20T20:19:35;6.15;;;2.53;;
581;SDS011;277;50.074;8.436;2023-12-20T20:22:03;1.48;;;1.38;;
581;SDS011;277;50.074;8.436;2023-12-20T20:24:31;2.83;;;1.58;;
581;SDS011;277;50.074;8.436;2023-12-20T20:27:01;5.00;;;3.25;;
581;SDS011;277;50.074;8.436;2023-12-20T20:29:29;3.92;;;1.85;;
581;SDS011;277;50.074;8.436;2023-12-20T20:31:57;1.70;;;1.60;;
581;SDS011;277;50.074;8.436;2023-12-20T20:34:25;1.70;;;1.60;;
581;SDS011;277;50.074;8.436;2023-12-20T20:36:54;2.33;;;2.10;;
581;SDS011;277;50.074;8.436;2023-12-20T20:39:22;3.05;;;2.08;;
581;SDS011;277;50.074;8.436;2023-12-20T20:41:50;1.92;;;1.73;;
581;SDS011;277;50.074;8.436;2023-12-20T20:44:19;3.35;;;2.78;;
581;SDS011;277;50.074;8.436;2023-12-20T20:46:47;2.08;;;1.90;;
581;SDS011;277;50.074;8.436;2023-12-20T20:49:17;2.75;;;2.20;;
581;SDS011;277;50.074;8.436;2023-12-20T20:51:45;4.15;;;2.65;;
581;SDS011;277;50.074;8.436;2023-12-20T20:54:13;4.28;;;3.88;;
581;SDS011;277;50.074;8.436;2023-12-20T20:56:44;4.07;;;2.00;;
581;SDS011;277;50.074;8.436;2023-12-20T20:59:12;3.05;;;2.75;;
581;SDS011;277;50.074;8.436;2023-12-20T21:01:42;2.75;;;2.30;;
581;SDS011;277;50.074;8.436;2023-12-20T21:04:10;1.92;;;1.80;;
581;SDS011;277;50.074;8.436;2023-12-20T21:06:38;4.30;;;2.25;;
581;SDS011;277;50.074;8.436;2023-12-20T21:09:06;2.97;;;2.40;;
581;SDS011;277;50.074;8.436;2023-12-20T21:11:35;2.47;;;2.28;;
581;SDS011;277;50.074;8.436;2023-12-20T21:14:03;3.38;;;2.90;;
581;SDS011;277;50.074;8.436;2023-12-20T21:16:31;3.03;;;2.15;;
581;SDS011;277;50.074;8.436;2023-12-20T21:19:01;2.95;;;2.40;;
581;SDS011;277;50.074;8.436;2023-12-20T21:21:32;3.97;;;2.65;;
581;SDS011;277;50.074;8.436;2023-12-20T21:24:01;3.92;;;2.53;;
581;SDS011;277;50.074;8.436;2023-12-20T21:26:29;3.38;;;2.03;;
581;SDS011;277;50.074;8.436;2023-12-20T21:28:57;2.70;;;2.50;;
581;SDS011;277;50.074;8.436;2023-12-20T21:31:25;2.17;;;1.98;;
581;SDS011;277;50.074;8.436;2023-12-20T21:33:53;2.92;;;2.20;;
581;SDS011;277;50.074;8.436;2023-12-20T21:36:23;2.10;;;1.90;;
581;SDS011;277;50.074;8.436;2023-12-20T21:38:51;2.47;;;2.28;;
581;SDS011;277;50.074;8.436;2023-12-20T21:41:19;2.15;;;1.95;;
581;SDS011;277;50.074;8.436;2023-12-20T21:43:49;2.78;;;2.17;;
581;SDS011;277;50.074;8.436;2023-12-20T21:46:17;2.25;;;2.15;;
581;SDS011;277;50.074;8.436;2023-12-20T21:48:46;5.93;;;2.50;;
581;SDS011;277;50.074;8.436;2023-12-20T21:51:13;2.33;;;1.98;;
581;SDS011;277;50.074;8.436;2023-12-20T21:53:45;2.50;;;2.30;;
581;SDS011;277;50.074;8.436;2023-12-20T21:56:13;3.58;;;2.55;;
581;SDS011;277;50.074;8.436;2023-12-20T21:58:41;2.65;;;2.20;;
581;SDS011;277;50.074;8.436;2023-12-20T22:01:08;1.90;;;1.70;;
581;SDS011;277;50.074;8.436;2023-12-20T22:03:36;4.35;;;2.30;;
581;SDS011;277;50.074;8.436;2023-12-20T22:06:07;3.60;;;2.22;;
581;SDS011;277;50.074;8.436;2023-12-20T22:08:35;2.13;;;1.80;;
581;SDS011;277;50.074;8.436;2023-12-20T22:11:04;2.17;;;2.08;;
581;SDS011;277;50.074;8.436;2023-12-20T22:13:32;2.17;;;1.98;;
581;SDS011;277;50.074;8.436;2023-12-20T22:16:00;2.30;;;2.10;;
581;SDS011;277;50.074;8.436;2023-12-20T22:18:28;2.03;;;1.83;;
581;SDS011;277;50.074;8.436;2023-12-20T22:20:56;1.60;;;1.50;;
581;SDS011;277;50.074;8.436;2023-12-20T22:23:25;2.13;;;1.77;;
581;SDS011;277;50.074;8.436;2023-12-20T22:25:53;2.30;;;1.70;;
581;SDS011;277;50.074;8.436;2023-12-20T22:28:23;1.90;;;1.80;;
581;SDS011;277;50.074;8.436;2023-12-20T22:30:51;4.82;;;2.30;;
581;SDS011;277;50.074;8.436;2023-12-20T22:33:19;1.50;;;1.35;;
581;SDS011;277;50.074;8.436;2023-12-20T22:35:47;2.30;;;1.60;;
581;SDS011;277;50.074;8.436;2023-12-20T22:38:15;1.65;;;1.55;;
581;SDS011;277;50.074;8.436;2023-12-20T22:40:43;2.15;;;1.20;;